Time;durP1;ratioP1;P1;durP2;ratioP2;P2;SDS_P1;SDS_P2;PMS_P1;PMS_P2;Temp;Humidity;BMP_temperature;BMP_pressure;BME280_temperature;BME280_humidity;BME280_pressure;Samples;Min_cycle;Max_cycle;Signal;HPM_P1;HPM_P2
2024/03/28 00:02:30;;;;;;;9.73;1.50;;;;;;;;;;10427064;28;20527;-62
2024/03/28 00:07:31;;;;;;;3.83;1.77;;;;;;;;;;10424036;28;20029;-61
2024/03/28 00:12:31;;;;;;;3.20;1.60;;;;;;;;;;10422692;28;20411;-61
2024/03/28 00:17:32;;;;;;;4.78;1.38;;;;;;;;;;10419927;28;20480;-61
2024/03/28 00:22:33;;;;;;;4.55;1.40;;;;;;;;;;10436973;28;20021;-61
2024/03/28 00:27:33;;;;;;;3.30;1.48;;;;;;;;;;10425081;28;20030;-61
2024/03/28 00:32:34;;;;;;;2.47;1.45;;;;;;;;;;10439178;28;20052;-62
2024/03/28 00:37:35;;;;;;;4.00;1.40;;;;;;;;;;10440157;28;20082;-61
2024/03/28 00:42:35;;;;;;;3.40;1.63;;;;;;;;;;10431587;28;20037;-61
2024/03/28 00:47:36;;;;;;;2.75;1.20;;;;;;;;;;10415171;28;20022;-61
2024/03/28 00:52:36;;;;;;;2.83;1.52;;;;;;;;;;10436922;28;20075;-61
2024/03/28 00:57:37;;;;;;;7.30;1.50;;;;;;;;;;10412449;28;20289;-60
2024/03/28 01:02:37;;;;;;;4.38;1.45;;;;;;;;;;10436823;28;20026;-61
2024/03/28 01:07:38;;;;;;;1.63;1.20;;;;;;;;;;10419350;28;20028;-60
2024/03/28 01:12:38;;;;;;;4.55;1.80;;;;;;;;;;10433001;28;20025;-62
2024/03/28 01:17:39;;;;;;;3.08;1.88;;;;;;;;;;10428335;28;20083;-61
2024/03/28 01:22:40;;;;;;;1.58;1.25;;;;;;;;;;10416408;28;20187;-62
2024/03/28 01:27:40;;;;;;;1.55;1.10;;;;;;;;;;10437736;28;20029;-61
2024/03/28 01:32:41;;;;;;;6.68;1.48;;;;;;;;;;10412958;28;20045;-62
2024/03/28 01:37:41;;;;;;;3.45;1.27;;;;;;;;;;10429273;28;20026;-61
2024/03/28 01:42:42;;;;;;;5.45;1.40;;;;;;;;;;10419271;28;20082;-61
2024/03/28 01:47:42;;;;;;;6.40;1.30;;;;;;;;;;10410421;28;20043;-61
2024/03/28 01:52:43;;;;;;;4.13;1.52;;;;;;;;;;10418598;28;20043;-61
2024/03/28 01:57:46;;;;;;;2.97;1.42;;;;;;;;;;10412042;28;20044;-61
2024/03/28 02:02:47;;;;;;;7.85;1.08;;;;;;;;;;10419681;28;20108;-62
2024/03/28 02:07:47;;;;;;;1.48;0.95;;;;;;;;;;10424498;28;20563;-61
2024/03/28 02:12:49;;;;;;;3.38;1.17;;;;;;;;;;10437461;28;20460;-61
2024/03/28 02:17:50;;;;;;;1.67;1.08;;;;;;;;;;10436489;28;20043;-60
2024/03/28 02:22:50;;;;;;;3.92;1.40;;;;;;;;;;10435567;28;20437;-60
2024/03/28 02:27:51;;;;;;;2.72;1.23;;;;;;;;;;10419930;28;20025;-60
2024/03/28 02:32:51;;;;;;;4.10;1.58;;;;;;;;;;10438468;28;20044;-61
2024/03/28 02:37:52;;;;;;;1.65;1.13;;;;;;;;;;10441296;28;20029;-61
2024/03/28 02:42:53;;;;;;;4.25;1.27;;;;;;;;;;10438210;28;20048;-61
2024/03/28 02:47:54;;;;;;;1.92;1.02;;;;;;;;;;10423316;28;20034;-61
2024/03/28 02:52:54;;;;;;;1.50;1.10;;;;;;;;;;10426571;28;20029;-62
2024/03/28 02:57:55;;;;;;;4.15;1.45;;;;;;;;;;10427967;28;20028;-61
2024/03/28 03:02:55;;;;;;;1.58;0.95;;;;;;;;;;10407766;28;20029;-62
2024/03/28 03:07:56;;;;;;;3.58;1.20;;;;;;;;;;10419562;28;20412;-62
2024/03/28 03:12:56;;;;;;;7.80;1.45;;;;;;;;;;10434245;28;20065;-61
2024/03/28 03:17:58;;;;;;;1.38;1.02;;;;;;;;;;10432107;28;20091;-61
2024/03/28 03:23:04;;;;;;;1.58;0.98;;;;;;;;;;10418040;28;20025;-61
2024/03/28 03:38:44;;;;;;;1.77;1.13;;;;;;;;;;10438433;28;20044;-61
2024/03/28 03:43:45;;;;;;;6.68;1.40;;;;;;;;;;10430341;28;20029;-61
2024/03/28 03:48:46;;;;;;;3.58;1.02;;;;;;;;;;10433667;28;20045;-61
2024/03/28 03:53:46;;;;;;;1.85;1.35;;;;;;;;;;10432727;28;20022;-61
2024/03/28 03:58:47;;;;;;;2.75;1.20;;;;;;;;;;10448942;28;20395;-61
2024/03/28 04:03:48;;;;;;;2.08;1.20;;;;;;;;;;10431300;28;20480;-61
2024/03/28 04:08:49;;;;;;;2.03;1.10;;;;;;;;;;10424523;28;20021;-61
2024/03/28 04:13:49;;;;;;;1.90;1.10;;;;;;;;;;10426847;28;20026;-61
2024/03/28 04:18:50;;;;;;;1.08;1.00;;;;;;;;;;10428300;28;20028;-60
2024/03/28 04:23:50;;;;;;;1.42;1.10;;;;;;;;;;10429039;28;20033;-61
2024/03/28 04:28:51;;;;;;;1.50;1.00;;;;;;;;;;10422874;28;20029;-60
2024/03/28 04:33:52;;;;;;;1.83;1.02;;;;;;;;;;10425190;28;20033;-61
2024/03/28 04:38:53;;;;;;;1.88;1.02;;;;;;;;;;10429848;28;20056;-62
2024/03/28 04:43:53;;;;;;;2.85;1.05;;;;;;;;;;10449213;28;20090;-62
2024/03/28 04:48:54;;;;;;;2.30;0.90;;;;;;;;;;10422109;28;20032;-62
2024/03/28 04:53:54;;;;;;;1.77;0.90;;;;;;;;;;10416081;28;20291;-61
2024/03/28 04:58:55;;;;;;;1.30;0.95;;;;;;;;;;10429830;28;20021;-61
2024/03/28 05:03:56;;;;;;;2.15;1.13;;;;;;;;;;10430366;28;20029;-61
2024/03/28 05:08:56;;;;;;;1.48;0.98;;;;;;;;;;10436190;28;20033;-61
2024/03/28 05:13:57;;;;;;;0.88;0.88;;;;;;;;;;10417086;28;20021;-61
2024/03/28 05:18:57;;;;;;;7.95;1.17;;;;;;;;;;10424000;28;20026;-63
2024/03/28 05:23:58;;;;;;;1.45;1.15;;;;;;;;;;10411859;28;20033;-62
2024/03/28 05:28:58;;;;;;;10.15;1.15;;;;;;;;;;10432839;28;20030;-62
2024/03/28 05:33:59;;;;;;;1.30;0.90;;;;;;;;;;10415912;28;20033;-60
2024/03/28 05:39:00;;;;;;;3.90;1.30;;;;;;;;;;10424669;28;20040;-60
2024/03/28 05:44:02;;;;;;;10.95;1.73;;;;;;;;;;10424312;28;20558;-60
2024/03/28 05:49:02;;;;;;;1.88;1.10;;;;;;;;;;10419076;28;20536;-62
2024/03/28 05:54:03;;;;;;;3.25;1.42;;;;;;;;;;10417739;28;20028;-62
2024/03/28 05:59:03;;;;;;;2.15;1.00;;;;;;;;;;10422303;28;20021;-61
2024/03/28 06:04:04;;;;;;;2.85;1.30;;;;;;;;;;10421351;28;20048;-60
2024/03/28 06:09:04;;;;;;;9.57;2.55;;;;;;;;;;10427199;28;20090;-60
2024/03/28 06:14:09;;;;;;;17.92;2.30;;;;;;;;;;10411399;28;20064;-60
2024/03/28 06:19:10;;;;;;;10.80;2.42;;;;;;;;;;10423965;28;20061;-60
2024/03/28 06:24:10;;;;;;;15.90;1.92;;;;;;;;;;10419240;28;20033;-59
2024/03/28 06:29:11;;;;;;;2.50;1.90;;;;;;;;;;10417125;28;20042;-60
2024/03/28 06:34:12;;;;;;;13.02;1.73;;;;;;;;;;10426108;28;20048;-60
2024/03/28 06:39:12;;;;;;;4.43;1.90;;;;;;;;;;10427425;28;20037;-60
2024/03/28 06:44:13;;;;;;;5.00;1.73;;;;;;;;;;10425755;28;20033;-60
2024/03/28 06:49:13;;;;;;;3.35;1.70;;;;;;;;;;10434426;28;20032;-60
2024/03/28 06:54:14;;;;;;;3.03;1.40;;;;;;;;;;10425534;28;20036;-60
2024/03/28 06:59:14;;;;;;;2.90;1.40;;;;;;;;;;10417966;28;20021;-60
2024/03/28 07:04:15;;;;;;;25.20;2.03;;;;;;;;;;10423820;28;20018;-60
2024/03/28 07:09:16;;;;;;;7.07;2.35;;;;;;;;;;10428320;28;20031;-60
2024/03/28 07:14:18;;;;;;;2.67;1.60;;;;;;;;;;10430428;28;20028;-60
2024/03/28 07:19:18;;;;;;;4.88;1.83;;;;;;;;;;10434413;28;20021;-60
2024/03/28 07:24:19;;;;;;;8.13;2.10;;;;;;;;;;10416137;28;20428;-60
2024/03/28 07:29:20;;;;;;;5.43;1.65;;;;;;;;;;10419130;28;20608;-60
2024/03/28 07:34:21;;;;;;;6.53;2.20;;;;;;;;;;10426531;28;20048;-60
2024/03/28 07:39:22;;;;;;;8.98;1.80;;;;;;;;;;10419703;28;20055;-60
2024/03/28 07:44:23;;;;;;;3.67;1.67;;;;;;;;;;10416510;28;20025;-60
2024/03/28 07:49:24;;;;;;;6.40;1.88;;;;;;;;;;10423758;28;20025;-60
2024/03/28 07:54:25;;;;;;;3.17;1.75;;;;;;;;;;10428639;28;20029;-60
2024/03/28 07:59:25;;;;;;;3.05;1.88;;;;;;;;;;10410509;28;20409;-60
2024/03/28 08:04:26;;;;;;;8.25;1.63;;;;;;;;;;10408479;28;20542;-60
2024/03/28 08:09:27;;;;;;;2.22;1.75;;;;;;;;;;10416957;28;20404;-60
2024/03/28 08:14:27;;;;;;;6.70;1.70;;;;;;;;;;10428310;28;20177;-60
2024/03/28 08:19:28;;;;;;;3.65;1.60;;;;;;;;;;10417958;28;20048;-60
2024/03/28 08:24:31;;;;;;;6.60;1.60;;;;;;;;;;10410597;28;20025;-60
2024/03/28 08:29:31;;;;;;;5.60;1.58;;;;;;;;;;10436969;28;20538;-60
2024/03/28 08:34:32;;;;;;;2.60;1.50;;;;;;;;;;10437411;28;20037;-60
2024/03/28 08:39:33;;;;;;;2.35;1.20;;;;;;;;;;10425688;28;20044;-60
2024/03/28 08:44:34;;;;;;;2.53;1.42;;;;;;;;;;10423994;28;20122;-60
2024/03/28 08:49:35;;;;;;;5.22;1.48;;;;;;;;;;10431978;28;20029;-60
2024/03/28 08:54:36;;;;;;;1.60;1.50;;;;;;;;;;10447715;28;20017;-60
2024/03/28 08:59:37;;;;;;;5.30;1.60;;;;;;;;;;10439550;28;20029;-60
2024/03/28 09:04:37;;;;;;;1.17;1.13;;;;;;;;;;10442542;28;20028;-60
2024/03/28 09:09:38;;;;;;;3.35;1.40;;;;;;;;;;10441574;28;20033;-60
2024/03/28 09:14:39;;;;;;;1.50;1.40;;;;;;;;;;10416925;28;20029;-60
2024/03/28 09:19:41;;;;;;;2.97;1.60;;;;;;;;;;10425274;28;20029;-60
2024/03/28 09:24:42;;;;;;;6.75;1.50;;;;;;;;;;10423000;28;20032;-60
2024/03/28 09:29:42;;;;;;;3.55;1.45;;;;;;;;;;10421710;28;20061;-60
2024/03/28 09:34:48;;;;;;;2.22;1.30;;;;;;;;;;10423442;28;20033;-60
2024/03/28 09:39:49;;;;;;;6.63;2.20;;;;;;;;;;10409880;28;20031;-60
2024/03/28 09:44:50;;;;;;;2.63;1.48;;;;;;;;;;10409596;28;20030;-60
2024/03/28 09:49:51;;;;;;;3.78;1.50;;;;;;;;;;10422314;28;20480;-60
2024/03/28 09:54:52;;;;;;;3.35;1.67;;;;;;;;;;10432601;28;20087;-60
2024/03/28 09:59:53;;;;;;;1.52;1.42;;;;;;;;;;10410592;28;20108;-60
2024/03/28 10:04:55;;;;;;;1.55;1.35;;;;;;;;;;10422217;28;20026;-60
2024/03/28 10:09:56;;;;;;;3.10;1.88;;;;;;;;;;10417989;28;20095;-60
2024/03/28 10:14:57;;;;;;;3.00;1.70;;;;;;;;;;10412161;28;20445;-60
2024/03/28 10:20:02;;;;;;;3.67;1.70;;;;;;;;;;10414282;28;20032;-60
2024/03/28 10:25:03;;;;;;;3.85;1.92;;;;;;;;;;10432826;28;20052;-60
2024/03/28 10:30:04;;;;;;;3.63;1.55;;;;;;;;;;10443867;28;20060;-60
2024/03/28 10:35:09;;;;;;;3.35;1.45;;;;;;;;;;10409959;28;21284;-60
2024/03/28 10:40:10;;;;;;;4.50;1.52;;;;;;;;;;10434420;28;20045;-60
2024/03/28 10:45:11;;;;;;;1.60;1.40;;;;;;;;;;10432537;28;20021;-60
2024/03/28 10:50:25;;;;;;;5.88;1.50;;;;;;;;;;10420012;28;20091;-60
2024/03/28 10:55:37;;;;;;;4.03;2.00;;;;;;;;;;10419644;28;20025;-61
2024/03/28 11:00:38;;;;;;;3.80;1.50;;;;;;;;;;10420380;28;20037;-60
2024/03/28 11:05:39;;;;;;;1.73;1.42;;;;;;;;;;10421739;28;20036;-60
2024/03/28 11:10:40;;;;;;;5.05;1.70;;;;;;;;;;10419418;28;20032;-60
2024/03/28 11:15:41;;;;;;;4.30;1.58;;;;;;;;;;10433055;28;20033;-60
2024/03/28 11:20:51;;;;;;;2.92;1.70;;;;;;;;;;10411018;28;20091;-60
2024/03/28 11:26:05;;;;;;;6.53;2.00;;;;;;;;;;10426809;28;20036;-60
2024/03/28 11:31:06;;;;;;;2.67;1.88;;;;;;;;;;10431603;28;20190;-60
2024/03/28 11:36:08;;;;;;;2.03;1.65;;;;;;;;;;10440990;28;20116;-60
2024/03/28 11:41:09;;;;;;;1.55;1.45;;;;;;;;;;10430620;28;20537;-60
2024/03/28 11:46:09;;;;;;;2.53;1.60;;;;;;;;;;10427949;28;20036;-60
2024/03/28 11:51:10;;;;;;;2.85;1.50;;;;;;;;;;10422079;28;20030;-60
2024/03/28 11:56:16;;;;;;;2.13;1.77;;;;;;;;;;10406485;28;20029;-60
2024/03/28 12:01:21;;;;;;;1.85;1.50;;;;;;;;;;10421281;28;20458;-60
2024/03/28 12:06:21;;;;;;;3.80;1.90;;;;;;;;;;10437409;28;20037;-60
2024/03/28 12:11:22;;;;;;;3.50;1.83;;;;;;;;;;10418314;28;20476;-60
2024/03/28 12:16:23;;;;;;;3.08;1.70;;;;;;;;;;10417996;28;20429;-60
2024/03/28 12:21:24;;;;;;;2.63;1.60;;;;;;;;;;10443139;28;20472;-60
2024/03/28 12:26:26;;;;;;;1.98;1.42;;;;;;;;;;10412648;28;20032;-60
2024/03/28 12:31:26;;;;;;;6.00;1.50;;;;;;;;;;10424047;28;20037;-60
2024/03/28 12:36:27;;;;;;;1.73;1.55;;;;;;;;;;10425316;28;20408;-60
2024/03/28 12:41:27;;;;;;;1.75;1.40;;;;;;;;;;10436282;28;20029;-60
2024/03/28 12:46:28;;;;;;;4.55;1.45;;;;;;;;;;10448031;28;20040;-60
2024/03/28 12:51:28;;;;;;;2.33;1.55;;;;;;;;;;10422639;28;20025;-60
2024/03/28 12:56:30;;;;;;;1.80;1.23;;;;;;;;;;10420585;28;20021;-60
2024/03/28 13:01:31;;;;;;;3.47;1.58;;;;;;;;;;10413268;28;20098;-60
2024/03/28 13:06:31;;;;;;;5.18;1.65;;;;;;;;;;10425874;28;20037;-60
2024/03/28 13:11:32;;;;;;;3.08;1.48;;;;;;;;;;10417822;28;20468;-60
2024/03/28 13:16:32;;;;;;;5.45;1.73;;;;;;;;;;10426653;28;20522;-60
2024/03/28 13:21:33;;;;;;;6.80;1.58;;;;;;;;;;10416645;28;20037;-60
2024/03/28 13:26:34;;;;;;;1.77;1.42;;;;;;;;;;10436097;28;20028;-60
2024/03/28 13:31:35;;;;;;;1.58;1.48;;;;;;;;;;10422401;28;20057;-60
2024/03/28 13:36:38;;;;;;;3.90;1.45;;;;;;;;;;10413687;28;20029;-60
2024/03/28 13:41:38;;;;;;;2.55;1.50;;;;;;;;;;10412817;28;20120;-60
2024/03/28 13:46:39;;;;;;;2.33;1.30;;;;;;;;;;10423537;28;20026;-60
2024/03/28 13:51:40;;;;;;;1.50;1.35;;;;;;;;;;10417594;28;20032;-60
2024/03/28 13:56:41;;;;;;;1.55;1.40;;;;;;;;;;10436188;28;20440;-60
2024/03/28 14:01:41;;;;;;;2.13;1.55;;;;;;;;;;10441246;28;20052;-59
2024/03/28 14:06:42;;;;;;;5.80;1.52;;;;;;;;;;10425969;28;20033;-59
2024/03/28 14:11:44;;;;;;;2.00;1.40;;;;;;;;;;10418386;28;20461;-59
2024/03/28 14:16:45;;;;;;;3.25;1.42;;;;;;;;;;10409197;28;20396;-60
2024/03/28 14:21:45;;;;;;;2.90;1.33;;;;;;;;;;10425516;28;20022;-60
2024/03/28 14:26:46;;;;;;;2.00;1.20;;;;;;;;;;10444110;28;20030;-59
2024/03/28 14:31:46;;;;;;;3.17;1.63;;;;;;;;;;10445865;28;20393;-59
2024/03/28 14:36:47;;;;;;;4.03;1.38;;;;;;;;;;10431926;28;21405;-59
2024/03/28 14:41:48;;;;;;;1.98;1.33;;;;;;;;;;10429932;28;20500;-59
2024/03/28 14:46:48;;;;;;;2.22;1.20;;;;;;;;;;10420387;28;20074;-59
2024/03/28 14:51:50;;;;;;;2.55;1.40;;;;;;;;;;10444489;28;20037;-59
2024/03/28 14:56:51;;;;;;;2.53;1.60;;;;;;;;;;10432087;28;20103;-59
2024/03/28 15:01:51;;;;;;;4.70;1.60;;;;;;;;;;10407280;28;20037;-59
2024/03/28 15:06:52;;;;;;;4.85;1.23;;;;;;;;;;10442974;28;20380;-59
2024/03/28 15:11:53;;;;;;;1.77;1.20;;;;;;;;;;10407409;28;20496;-60
2024/03/28 15:16:53;;;;;;;2.63;1.50;;;;;;;;;;10436001;28;20044;-60
2024/03/28 15:21:54;;;;;;;1.77;1.20;;;;;;;;;;10427802;28;20028;-60
2024/03/28 15:26:54;;;;;;;1.50;1.40;;;;;;;;;;10442268;28;20542;-59
2024/03/28 15:31:56;;;;;;;1.33;1.10;;;;;;;;;;10443882;28;20523;-59
2024/03/28 15:36:56;;;;;;;1.75;1.25;;;;;;;;;;10430316;28;20059;-60
2024/03/28 15:41:57;;;;;;;1.95;1.40;;;;;;;;;;10429021;28;20067;-60
2024/03/28 15:46:57;;;;;;;2.45;1.20;;;;;;;;;;10440729;28;20031;-59
2024/03/28 15:51:58;;;;;;;1.73;1.50;;;;;;;;;;10406622;28;20025;-60
2024/03/28 15:56:59;;;;;;;1.35;1.25;;;;;;;;;;10417877;28;20033;-59
2024/03/28 16:01:59;;;;;;;1.58;1.30;;;;;;;;;;10417152;28;20025;-59
2024/03/28 16:07:00;;;;;;;2.25;1.33;;;;;;;;;;10418990;28;20030;-59
2024/03/28 16:12:03;;;;;;;2.05;1.40;;;;;;;;;;10417354;28;20021;-59
2024/03/28 16:17:07;;;;;;;5.90;1.23;;;;;;;;;;10405511;28;20573;-59
2024/03/28 16:22:08;;;;;;;2.25;1.42;;;;;;;;;;10427596;28;20415;-59
2024/03/28 16:27:09;;;;;;;1.40;1.30;;;;;;;;;;10425094;28;20075;-59
2024/03/28 16:32:10;;;;;;;1.30;1.20;;;;;;;;;;10414085;28;20041;-59
2024/03/28 16:37:10;;;;;;;2.00;1.35;;;;;;;;;;10419136;28;20079;-59
2024/03/28 16:42:11;;;;;;;1.58;1.30;;;;;;;;;;10428397;28;20040;-59
2024/03/28 16:47:11;;;;;;;1.23;1.13;;;;;;;;;;10419996;28;20033;-59
2024/03/28 16:52:12;;;;;;;1.83;1.58;;;;;;;;;;10424938;28;20017;-59
2024/03/28 16:57:13;;;;;;;1.75;1.30;;;;;;;;;;10427677;28;20029;-59
2024/03/28 17:02:13;;;;;;;2.70;1.33;;;;;;;;;;10415378;28;20039;-60
2024/03/28 17:07:14;;;;;;;1.30;1.20;;;;;;;;;;10423639;28;20033;-60
2024/03/28 17:12:15;;;;;;;0.95;0.90;;;;;;;;;;10426722;28;20029;-60
2024/03/28 17:17:15;;;;;;;2.65;1.35;;;;;;;;;;10431848;28;20025;-59
2024/03/28 17:22:16;;;;;;;1.30;1.20;;;;;;;;;;10432314;28;20021;-60
2024/03/28 17:27:16;;;;;;;2.05;1.30;;;;;;;;;;10429448;28;20013;-60
2024/03/28 17:32:17;;;;;;;1.40;1.25;;;;;;;;;;10416050;28;20397;-59
2024/03/28 17:37:19;;;;;;;3.17;1.52;;;;;;;;;;10439603;28;20017;-60
2024/03/28 17:42:20;;;;;;;2.78;1.38;;;;;;;;;;10421825;28;20065;-59
2024/03/28 17:47:20;;;;;;;3.53;1.60;;;;;;;;;;10426790;28;20047;-59
2024/03/28 17:52:21;;;;;;;3.60;1.52;;;;;;;;;;10445215;28;20033;-59
2024/03/28 17:57:22;;;;;;;2.45;1.30;;;;;;;;;;10427147;28;20032;-59
2024/03/28 18:02:23;;;;;;;1.38;1.27;;;;;;;;;;10432299;28;20028;-59
2024/03/28 18:07:26;;;;;;;1.85;1.65;;;;;;;;;;10423332;28;20029;-59
2024/03/28 18:12:26;;;;;;;1.95;1.23;;;;;;;;;;10426741;28;20079;-59
2024/03/28 18:17:27;;;;;;;1.05;1.05;;;;;;;;;;10416212;28;20025;-59
2024/03/28 18:22:28;;;;;;;2.45;1.52;;;;;;;;;;10408955;28;20276;-59
2024/03/28 18:27:28;;;;;;;1.40;1.30;;;;;;;;;;10432461;28;20029;-59
2024/03/28 18:32:29;;;;;;;1.50;1.38;;;;;;;;;;10429209;28;20045;-59
2024/03/28 18:37:30;;;;;;;1.40;1.30;;;;;;;;;;10417127;28;20032;-59
2024/03/28 18:42:30;;;;;;;3.15;1.63;;;;;;;;;;10432219;28;20029;-59
2024/03/28 18:47:31;;;;;;;3.15;1.40;;;;;;;;;;10414949;28;20091;-59
2024/03/28 18:52:31;;;;;;;1.70;1.40;;;;;;;;;;10432425;28;20036;-59
2024/03/28 18:57:32;;;;;;;5.30;1.50;;;;;;;;;;10442788;28;20037;-59
2024/03/28 19:02:33;;;;;;;1.77;1.25;;;;;;;;;;10429145;28;20034;-59
2024/03/28 19:07:33;;;;;;;3.22;1.35;;;;;;;;;;10420171;28;20441;-59
2024/03/28 19:12:35;;;;;;;1.42;1.30;;;;;;;;;;10429545;28;20025;-59
2024/03/28 19:17:36;;;;;;;1.75;1.48;;;;;;;;;;10407532;28;20033;-59
2024/03/28 19:22:37;;;;;;;2.35;1.60;;;;;;;;;;10433608;28;20055;-59
2024/03/28 19:27:37;;;;;;;1.65;1.30;;;;;;;;;;10428229;28;20086;-59
2024/03/28 19:32:38;;;;;;;1.75;1.40;;;;;;;;;;10436231;28;20187;-59
2024/03/28 19:37:39;;;;;;;1.83;1.45;;;;;;;;;;10419892;28;20060;-59
2024/03/28 19:42:39;;;;;;;3.15;1.42;;;;;;;;;;10429190;28;20032;-59
2024/03/28 19:47:40;;;;;;;2.05;1.30;;;;;;;;;;10426557;28;20022;-59
2024/03/28 19:52:43;;;;;;;3.58;1.50;;;;;;;;;;10410156;28;20091;-59
2024/03/28 19:57:43;;;;;;;1.77;1.55;;;;;;;;;;10415929;28;20147;-59
2024/03/28 20:02:44;;;;;;;2.03;1.60;;;;;;;;;;10425530;28;20151;-59
2024/03/28 20:07:52;;;;;;;1.83;1.55;;;;;;;;;;10416175;28;20083;-59
2024/03/28 20:12:52;;;;;;;1.60;1.50;;;;;;;;;;10406524;28;20037;-59
2024/03/28 20:17:53;;;;;;;1.10;1.05;;;;;;;;;;10417741;28;20385;-59
2024/03/28 20:22:54;;;;;;;1.50;1.27;;;;;;;;;;10425045;28;20030;-59
2024/03/28 20:27:54;;;;;;;3.10;1.63;;;;;;;;;;10438086;28;20029;-59
2024/03/28 20:32:56;;;;;;;2.85;1.83;;;;;;;;;;10424648;28;20048;-59
2024/03/28 20:37:56;;;;;;;1.75;1.63;;;;;;;;;;10425416;28;20036;-59
2024/03/28 20:42:57;;;;;;;2.03;1.55;;;;;;;;;;10440089;28;20500;-59
2024/03/28 20:47:57;;;;;;;1.25;1.15;;;;;;;;;;10426514;28;20107;-59
2024/03/28 20:52:58;;;;;;;2.33;1.45;;;;;;;;;;10424847;28;20029;-59
2024/03/28 20:57:59;;;;;;;1.90;1.63;;;;;;;;;;10416204;28;20025;-59
2024/03/28 21:03:00;;;;;;;2.08;1.73;;;;;;;;;;10432399;28;20029;-59
2024/03/28 21:13:19;;;;;;;1.85;1.58;;;;;;;;;;10426165;28;20077;-59
2024/03/28 21:18:20;;;;;;;1.70;1.60;;;;;;;;;;10425932;28;20034;-59
2024/03/28 21:23:21;;;;;;;3.05;1.90;;;;;;;;;;10423988;28;20472;-59
2024/03/28 21:28:21;;;;;;;2.58;1.88;;;;;;;;;;10412966;28;20025;-59
2024/03/28 21:33:22;;;;;;;3.72;2.00;;;;;;;;;;10434646;28;20393;-59
2024/03/28 21:38:24;;;;;;;2.67;2.00;;;;;;;;;;10434409;28;20033;-59
2024/03/28 21:43:26;;;;;;;2.78;1.90;;;;;;;;;;10410098;28;20405;-59
2024/03/28 21:48:26;;;;;;;2.22;2.03;;;;;;;;;;10421345;28;20040;-59
2024/03/28 21:53:27;;;;;;;2.08;1.70;;;;;;;;;;10428127;28;20036;-59
2024/03/28 21:58:28;;;;;;;2.28;2.03;;;;;;;;;;10418439;28;20057;-61
2024/03/28 22:03:29;;;;;;;2.60;1.95;;;;;;;;;;10418683;28;20028;-60
2024/03/28 22:08:37;;;;;;;4.60;2.13;;;;;;;;;;10417906;28;20471;-60
2024/03/28 22:13:40;;;;;;;4.60;2.33;;;;;;;;;;10423553;28;20435;-60
2024/03/28 22:18:40;;;;;;;3.42;2.17;;;;;;;;;;10431779;28;20460;-60
2024/03/28 22:23:41;;;;;;;3.22;1.92;;;;;;;;;;10440957;28;20029;-60
2024/03/28 22:28:42;;;;;;;6.55;2.55;;;;;;;;;;10437906;28;20029;-60
2024/03/28 22:33:42;;;;;;;3.58;2.20;;;;;;;;;;10424612;28;20083;-60
2024/03/28 22:38:43;;;;;;;4.10;2.42;;;;;;;;;;10420442;28;20084;-60
2024/03/28 22:43:44;;;;;;;9.40;2.40;;;;;;;;;;10418239;28;20130;-61
2024/03/28 22:48:45;;;;;;;6.00;2.38;;;;;;;;;;10426646;28;20037;-60
2024/03/28 22:53:46;;;;;;;4.78;2.63;;;;;;;;;;10426133;28;20063;-60
2024/03/28 22:58:46;;;;;;;13.68;3.53;;;;;;;;;;10428764;28;20033;-60
2024/03/28 23:03:47;;;;;;;14.27;3.47;;;;;;;;;;10421008;28;20025;-61
2024/03/28 23:08:47;;;;;;;27.25;4.38;;;;;;;;;;10426220;28;20044;-62
2024/03/28 23:13:48;;;;;;;14.05;3.70;;;;;;;;;;10421256;28;20527;-62
2024/03/28 23:18:48;;;;;;;14.85;4.25;;;;;;;;;;10416009;28;20472;-62
2024/03/28 23:23:49;;;;;;;17.45;3.60;;;;;;;;;;10424061;28;20034;-62
2024/03/28 23:28:50;;;;;;;16.33;4.00;;;;;;;;;;10430916;28;20029;-61
2024/03/28 23:33:51;;;;;;;11.68;3.60;;;;;;;;;;10425187;28;20036;-62
2024/03/28 23:38:51;;;;;;;18.48;4.00;;;;;;;;;;10430430;28;20461;-61
2024/03/28 23:43:52;;;;;;;12.52;3.72;;;;;;;;;;10428376;28;20473;-61
2024/03/28 23:48:53;;;;;;;9.63;3.50;;;;;;;;;;10405722;28;20484;-61
2024/03/28 23:53:53;;;;;;;13.45;3.30;;;;;;;;;;10410940;28;20024;-61
2024/03/28 23:58:54;;;;;;;14.90;3.47;;;;;;;;;;10427185;28;20025;-61
